< Typhoon 197823 1978 Season Typhoon 197825 >
Typhoon 197824 (ORA)
General InformationTrack Information on Google MapsDetailed Wind Information || Disaster Info.ResourceGoogle EarthGE AnimationAtom FeedGeoJSON
Detalied Best Track (Time Zone = UTC)
Year Month Day Hour Lat. Long. Pressure (hPa) Wind (kt) Class Image Chart
1978 10 8 18 12.0 138.0 1002 0 2 -- Chart
1978 10 9 00 13.4 137.3 1002 0 2 -- Chart
1978 10 9 06 14.3 136.7 1000 0 2 -- Chart
1978 10 9 12 15.3 135.7 1000 0 2 -- Chart
1978 10 9 18 16.3 134.8 998 0 2 -- Chart
1978 10 10 00 17.3 133.8 996 35 3 -- Chart
1978 10 10 06 17.7 133.0 994 35 3 -- Chart
1978 10 10 12 18.1 131.7 994 35 3 -- Chart
1978 10 10 18 18.6 130.5 992 40 3 -- Chart
1978 10 11 00 19.3 129.7 990 50 4 -- Chart
1978 10 11 06 20.2 128.8 985 50 4 -- Chart
1978 10 11 12 20.8 127.2 985 50 4 -- Chart
1978 10 11 18 21.3 125.8 980 55 4 -- Chart
1978 10 12 00 21.7 124.4 980 55 4 -- Chart
1978 10 12 06 22.4 123.5 970 65 5 -- Chart
1978 10 12 12 22.5 122.8 965 65 5 -- Chart
1978 10 12 18 22.5 122.5 970 60 4 -- Chart
1978 10 13 00 23.1 122.7 945 75 5 -- Chart
1978 10 13 06 23.8 122.7 940 80 5 -- Chart
1978 10 13 12 24.8 123.1 950 75 5 -- Chart
1978 10 13 18 25.5 123.3 960 65 5 -- Chart
1978 10 14 00 26.0 123.8 985 55 4 -- Chart
1978 10 14 06 26.7 124.8 990 45 3 -- Chart
1978 10 14 12 27.3 126.2 990 45 3 -- Chart
1978 10 14 18 27.9 128.2 994 45 3 -- Chart
1978 10 15 00 28.8 130.4 996 40 3 -- Chart
1978 10 15 06 30.0 133.5 998 0 6 -- Chart
1978 10 15 12 31.0 136.4 998 0 6 -- Chart
1978 10 15 18 31.5 140.0 996 0 6 -- Chart
1978 10 16 00 33.0 145.0 994 0 6 -- Chart
1978 10 16 06 34.0 148.0 992 0 6 -- Chart
1978 10 16 12 35.0 152.0 992 0 6 -- Chart
1978 10 16 18 36.0 155.0 992 0 6 -- Chart
1978 10 17 00 36.9 158.0 992 0 6 -- Chart
1978 10 17 06 37.3 160.6 992 0 6 -- Chart
1978 10 17 12 37.8 163.0 988 0 6 -- Chart
1978 10 17 18 39.0 165.5 988 0 6 -- Chart
1978 10 18 00 40.0 168.0 988 0 6 -- Chart
1978 10 18 06 40.6 170.0 992 0 6 -- Chart
1978 10 18 12 41.2 171.3 992 0 6 -- Chart
1978 10 18 18 41.8 172.9 992 0 6 -- Chart
1978 10 19 00 42.2 174.9 992 0 6 -- Chart
1978 10 19 06 43.0 177.8 992 0 6 -- Chart
1978 10 19 12 43.6 181.8 992 0 6 -- Chart
Japan Meteorological Agency Best Track Data | Correction Date : 1992-10-21
< Typhoon 197823 1978 Season Typhoon 197825 >

Help